createdAt,value
2019-02-24T00:01:46.888Z,7.10
2019-02-24T00:04:15.341Z,7.10
2019-02-24T00:06:43.797Z,7.10
2019-02-24T00:09:12.943Z,7.10
2019-02-24T00:11:41.803Z,7.00
2019-02-24T00:14:10.587Z,6.90
2019-02-24T00:16:39.024Z,6.90
2019-02-24T00:19:07.856Z,7.00
2019-02-24T00:21:36.336Z,7.00
2019-02-24T00:24:04.773Z,7.00
2019-02-24T00:26:33.633Z,7.10
2019-02-24T00:29:02.058Z,7.10
2019-02-24T00:31:30.556Z,7.10
2019-02-24T00:33:59.080Z,7.10
2019-02-24T00:36:27.620Z,7.00
2019-02-24T00:38:56.330Z,7.00
2019-02-24T00:41:25.112Z,7.00
2019-02-24T00:43:53.569Z,7.10
2019-02-24T00:46:22.016Z,7.00
2019-02-24T00:48:50.475Z,7.10
2019-02-24T00:51:18.940Z,6.90
2019-02-24T00:53:47.420Z,6.80
2019-02-24T00:56:15.866Z,6.70
2019-02-24T00:58:44.702Z,6.70
2019-02-24T01:01:13.124Z,6.70
2019-02-24T01:03:41.618Z,6.60
2019-02-24T01:06:10.182Z,6.70
2019-02-24T01:08:38.645Z,6.70
2019-02-24T01:11:07.079Z,6.70
2019-02-24T01:13:35.646Z,6.70
2019-02-24T01:16:04.549Z,6.80
2019-02-24T01:18:33.020Z,6.80
2019-02-24T01:21:01.457Z,6.80
2019-02-24T01:23:29.938Z,6.90
2019-02-24T01:25:58.687Z,6.80
2019-02-24T01:28:27.485Z,6.80
2019-02-24T01:30:56.012Z,6.70
2019-02-24T01:33:24.470Z,6.70
2019-02-24T01:35:52.984Z,6.70
2019-02-24T01:38:21.445Z,6.70
2019-02-24T01:40:49.911Z,6.60
2019-02-24T01:43:18.356Z,6.60
2019-02-24T01:45:46.810Z,6.70
2019-02-24T01:48:15.279Z,6.70
2019-02-24T01:50:43.747Z,6.60
2019-02-24T01:53:12.267Z,6.60
2019-02-24T01:55:41.079Z,6.60
2019-02-24T01:58:09.538Z,6.60
2019-02-24T02:00:37.991Z,6.60
2019-02-24T02:03:06.431Z,6.60
2019-02-24T02:05:34.926Z,6.60
2019-02-24T02:08:03.428Z,6.60
2019-02-24T02:10:31.875Z,6.70
2019-02-24T02:13:00.346Z,6.70
2019-02-24T02:15:28.792Z,6.60
2019-02-24T02:17:57.249Z,6.50
2019-02-24T02:20:25.789Z,6.50
2019-02-24T02:22:54.501Z,6.40
2019-02-24T02:25:22.940Z,6.40
2019-02-24T02:27:51.762Z,6.50
2019-02-24T02:30:20.527Z,6.50
2019-02-24T02:32:49.333Z,6.50
2019-02-24T02:35:17.994Z,6.50
2019-02-24T02:37:46.500Z,6.40
2019-02-24T02:40:14.944Z,6.40
2019-02-24T02:42:43.753Z,6.40
2019-02-24T02:45:12.541Z,6.40
2019-02-24T02:47:40.988Z,6.40
2019-02-24T02:50:09.611Z,6.40
2019-02-24T02:52:38.498Z,6.30
2019-02-24T02:55:07.799Z,6.40
2019-02-24T02:57:36.349Z,6.40
2019-02-24T03:00:13.537Z,6.40
2019-02-24T03:02:42.017Z,6.40
2019-02-24T03:05:10.462Z,6.50
2019-02-24T03:07:40.553Z,6.40
2019-02-24T03:10:09.131Z,6.40
2019-02-24T03:12:37.935Z,6.40
2019-02-24T03:15:06.528Z,6.40
2019-02-24T03:17:35.283Z,6.40
2019-02-24T03:20:03.733Z,6.40
2019-02-24T03:22:32.192Z,6.30
2019-02-24T03:25:00.638Z,6.30
2019-02-24T03:27:29.413Z,6.20
2019-02-24T03:29:57.889Z,6.20
2019-02-24T03:32:26.367Z,6.30
2019-02-24T03:34:54.878Z,6.20
2019-02-24T03:37:23.347Z,6.10
2019-02-24T03:39:51.789Z,6.10
2019-02-24T03:42:20.228Z,6.10
2019-02-24T03:44:48.700Z,6.20
2019-02-24T03:47:17.154Z,6.20
2019-02-24T03:49:45.941Z,6.20
2019-02-24T03:52:14.423Z,6.10
2019-02-24T03:54:42.890Z,6.20
2019-02-24T03:57:11.786Z,6.20
2019-02-24T03:59:40.568Z,6.10
2019-02-24T04:02:09.038Z,6.10
2019-02-24T04:04:37.493Z,6.00
2019-02-24T04:07:05.937Z,6.00
2019-02-24T04:09:34.419Z,6.00
2019-02-24T04:12:03.023Z,6.00
2019-02-24T04:14:31.472Z,6.00
2019-02-24T04:16:59.952Z,6.00
2019-02-24T04:19:28.399Z,6.00
2019-02-24T04:21:56.863Z,6.00
2019-02-24T04:24:25.425Z,5.90
2019-02-24T04:26:53.953Z,5.90
2019-02-24T04:29:24.784Z,5.90
2019-02-24T04:31:52.610Z,5.90
2019-02-24T04:34:21.146Z,6.00
2019-02-24T04:36:49.960Z,6.00
2019-02-24T04:39:18.766Z,5.90
2019-02-24T04:41:47.204Z,5.90
2019-02-24T04:44:16.015Z,5.90
2019-02-24T04:46:44.809Z,5.90
2019-02-24T04:49:13.233Z,5.90
2019-02-24T04:51:41.795Z,5.90
2019-02-24T04:54:10.210Z,5.80
2019-02-24T04:56:39.057Z,5.80
2019-02-24T04:59:08.709Z,5.70
2019-02-24T05:01:37.494Z,5.80
2019-02-24T05:04:05.933Z,5.80
2019-02-24T05:06:34.368Z,5.80
2019-02-24T05:09:02.921Z,5.80
2019-02-24T05:11:31.374Z,5.70
2019-02-24T05:13:59.861Z,5.80
2019-02-24T05:16:28.257Z,5.80
2019-02-24T05:18:56.738Z,5.80
2019-02-24T05:21:25.219Z,5.70
2019-02-24T05:23:53.666Z,5.70
2019-02-24T05:26:22.132Z,5.60
2019-02-24T05:28:50.605Z,5.50
2019-02-24T05:31:19.057Z,5.50
2019-02-24T05:33:47.877Z,5.60
2019-02-24T05:36:16.687Z,5.60
2019-02-24T05:38:45.153Z,5.60
2019-02-24T05:41:13.950Z,5.70
2019-02-24T05:43:42.497Z,5.70
2019-02-24T05:46:11.322Z,5.70
2019-02-24T05:48:39.775Z,5.70
2019-02-24T05:51:08.588Z,5.70
2019-02-24T05:53:37.045Z,5.50
2019-02-24T05:56:05.575Z,5.50
2019-02-24T05:58:34.094Z,5.40
2019-02-24T06:01:02.612Z,5.40
2019-02-24T06:03:31.079Z,5.40
2019-02-24T06:05:59.527Z,5.50
2019-02-24T06:08:28.377Z,5.50
2019-02-24T06:10:56.923Z,5.50
2019-02-24T06:13:25.439Z,5.50
2019-02-24T06:15:53.911Z,5.60
2019-02-24T06:18:22.394Z,5.50
2019-02-24T06:20:50.851Z,5.50
2019-02-24T06:23:19.674Z,5.50
2019-02-24T06:25:48.502Z,5.50
2019-02-24T06:28:16.966Z,5.50
2019-02-24T06:30:45.372Z,5.50
2019-02-24T06:33:13.879Z,5.50
2019-02-24T06:35:42.421Z,5.50
2019-02-24T06:38:10.869Z,5.40
2019-02-24T06:40:39.318Z,5.30
2019-02-24T06:43:08.115Z,5.40
2019-02-24T06:45:36.558Z,5.40
2019-02-24T06:48:05.008Z,5.30
2019-02-24T06:50:50.442Z,5.30
2019-02-24T06:53:18.923Z,5.40
2019-02-24T06:55:47.731Z,5.50
2019-02-24T06:58:16.189Z,5.50
2019-02-24T07:00:44.651Z,5.50
2019-02-24T07:03:13.123Z,5.50
2019-02-24T07:05:41.580Z,5.50
2019-02-24T07:08:10.026Z,5.40
2019-02-24T07:10:38.484Z,5.20
2019-02-24T07:13:06.943Z,5.10
2019-02-24T07:15:35.404Z,5.20
2019-02-24T07:18:04.284Z,5.20
2019-02-24T07:20:32.728Z,5.30
2019-02-24T07:23:01.165Z,5.30
2019-02-24T07:25:29.645Z,5.30
2019-02-24T07:27:58.091Z,5.40
2019-02-24T07:30:26.976Z,5.40
2019-02-24T07:32:55.453Z,5.50
2019-02-24T07:35:23.924Z,6.20
2019-02-24T07:37:52.331Z,6.70
2019-02-24T07:40:20.849Z,7.00
2019-02-24T07:42:52.364Z,7.50
2019-02-24T07:45:21.259Z,7.90
2019-02-24T07:47:50.045Z,7.80
2019-02-24T07:50:18.929Z,7.60
2019-02-24T07:52:47.751Z,7.40
2019-02-24T07:55:16.219Z,7.30
2019-02-24T07:57:44.735Z,7.10
2019-02-24T08:00:13.194Z,6.90
2019-02-24T08:02:41.729Z,6.80
2019-02-24T08:05:10.335Z,6.80
2019-02-24T08:07:38.880Z,6.80
2019-02-24T08:10:08.069Z,7.30
2019-02-24T08:12:40.808Z,8.00
2019-02-24T08:15:10.157Z,8.30
2019-02-24T08:17:38.663Z,8.20
2019-02-24T08:20:09.049Z,8.10
2019-02-24T08:22:37.526Z,7.90
2019-02-24T08:25:07.413Z,7.70
2019-02-24T08:27:35.870Z,7.60
2019-02-24T08:30:06.549Z,7.60
2019-02-24T08:32:35.018Z,7.40
2019-02-24T08:35:03.970Z,7.40
2019-02-24T08:37:32.484Z,7.40
2019-02-24T08:40:00.949Z,7.40
2019-02-24T08:42:29.400Z,7.40
2019-02-24T08:44:57.914Z,7.40
2019-02-24T08:47:26.386Z,7.50
2019-02-24T08:49:54.825Z,7.60
2019-02-24T08:52:23.302Z,7.60
2019-02-24T08:54:51.746Z,7.70
2019-02-24T08:57:20.213Z,7.70
2019-02-24T08:59:48.676Z,7.90
2019-02-24T09:02:17.142Z,8.00
2019-02-24T09:04:45.576Z,8.00
2019-02-24T09:07:14.431Z,8.10
2019-02-24T09:09:42.867Z,8.20
2019-02-24T09:12:11.596Z,8.20
2019-02-24T09:14:40.692Z,8.30
2019-02-24T09:17:09.125Z,8.40
2019-02-24T09:19:37.573Z,8.40
2019-02-24T09:22:06.042Z,8.50
2019-02-24T09:24:34.483Z,8.60
2019-02-24T09:27:03.002Z,8.70
2019-02-24T09:29:31.482Z,8.90
2019-02-24T09:31:59.941Z,9.00
2019-02-24T09:34:28.854Z,9.10
2019-02-24T09:36:57.626Z,9.30
2019-02-24T09:39:26.064Z,9.40
2019-02-24T09:41:54.515Z,9.40
2019-02-24T09:44:23.690Z,9.50
2019-02-24T09:46:52.136Z,9.60
2019-02-24T09:49:21.068Z,9.80
2019-02-24T09:51:49.506Z,9.90
2019-02-24T09:54:18.000Z,10.00
2019-02-24T09:56:46.499Z,10.00
2019-02-24T09:59:14.952Z,10.10
2019-02-24T10:01:43.412Z,10.20
2019-02-24T10:04:11.880Z,10.30
2019-02-24T10:06:40.388Z,10.40
2019-02-24T10:09:08.914Z,10.50
2019-02-24T10:11:37.377Z,10.60
2019-02-24T10:14:05.843Z,10.80
2019-02-24T10:16:34.668Z,10.90
2019-02-24T10:19:03.131Z,11.10
2019-02-24T10:21:31.578Z,11.20
2019-02-24T10:24:00.041Z,11.30
2019-02-24T10:26:28.516Z,11.50
2019-02-24T10:28:57.050Z,11.70
2019-02-24T10:31:25.857Z,11.80
2019-02-24T10:33:54.409Z,12.00
2019-02-24T10:36:22.861Z,12.10
2019-02-24T10:38:51.310Z,12.30
2019-02-24T10:41:20.303Z,12.40
2019-02-24T10:43:48.834Z,12.60
2019-02-24T10:46:17.311Z,12.70
2019-02-24T10:48:45.757Z,12.90
2019-02-24T10:51:14.213Z,12.90
2019-02-24T10:53:42.676Z,13.10
2019-02-24T10:56:11.122Z,13.20
2019-02-24T10:58:41.307Z,13.40
2019-02-24T11:01:10.185Z,13.50
2019-02-24T11:03:38.706Z,13.60
2019-02-24T11:06:07.261Z,13.70
2019-02-24T11:08:35.774Z,13.80
2019-02-24T11:11:04.302Z,14.00
2019-02-24T11:13:32.837Z,14.10
2019-02-24T11:16:01.297Z,14.20
2019-02-24T11:18:29.748Z,14.30
2019-02-24T11:20:58.549Z,14.50
2019-02-24T11:23:27.072Z,14.60
2019-02-24T11:25:55.517Z,14.80
2019-02-24T11:28:24.001Z,14.90
2019-02-24T11:30:52.777Z,15.10
2019-02-24T11:33:21.243Z,15.20
2019-02-24T11:35:49.778Z,15.30
2019-02-24T11:38:18.253Z,15.40
2019-02-24T11:40:46.708Z,15.60
2019-02-24T11:43:15.528Z,15.60
2019-02-24T11:45:44.120Z,15.70
2019-02-24T11:48:12.590Z,15.80
2019-02-24T11:50:41.042Z,15.90
2019-02-24T11:53:09.488Z,16.00
2019-02-24T11:55:38.305Z,16.10
2019-02-24T11:58:06.754Z,16.20
2019-02-24T12:00:35.204Z,16.30
2019-02-24T12:03:03.839Z,16.40
2019-02-24T12:05:32.648Z,16.40
2019-02-24T12:08:01.100Z,16.30
2019-02-24T12:10:29.911Z,16.10
2019-02-24T12:12:58.377Z,16.10
2019-02-24T12:15:27.182Z,16.30
2019-02-24T12:17:55.993Z,16.40
2019-02-24T12:20:24.535Z,16.40
2019-02-24T12:22:52.998Z,16.30
2019-02-24T12:25:21.826Z,16.40
2019-02-24T12:27:50.293Z,16.30
2019-02-24T12:30:18.828Z,16.40
2019-02-24T12:32:47.676Z,16.50
2019-02-24T12:35:16.487Z,16.70
2019-02-24T12:37:44.960Z,16.90
2019-02-24T12:40:14.863Z,17.10
2019-02-24T12:42:43.388Z,17.20
2019-02-24T12:45:12.428Z,17.20
2019-02-24T12:47:40.875Z,17.00
2019-02-24T12:50:14.826Z,16.70
2019-02-24T12:52:43.379Z,16.30
2019-02-24T12:55:12.263Z,15.90
2019-02-24T12:57:41.664Z,15.60
2019-02-24T13:00:25.303Z,15.40
2019-02-24T13:02:53.773Z,15.20
2019-02-24T13:05:22.601Z,15.20
2019-02-24T13:07:51.053Z,15.30
2019-02-24T13:10:20.065Z,15.40
2019-02-24T13:12:48.589Z,15.40
2019-02-24T13:15:17.125Z,15.30
2019-02-24T13:17:45.743Z,15.30
2019-02-24T13:20:14.621Z,15.30
2019-02-24T13:22:43.073Z,15.10
2019-02-24T13:25:13.349Z,15.00
2019-02-24T13:27:41.806Z,14.90
2019-02-24T13:30:12.300Z,14.80
2019-02-24T13:32:40.782Z,14.80
2019-02-24T13:35:09.771Z,14.80
2019-02-24T13:37:38.227Z,14.90
2019-02-24T13:40:14.694Z,15.00
2019-02-24T13:42:43.142Z,15.10
2019-02-24T13:45:19.573Z,15.00
2019-02-24T13:47:48.025Z,15.00
2019-02-24T13:50:16.894Z,15.00
2019-02-24T13:52:45.364Z,15.00
2019-02-24T13:55:15.773Z,14.90
2019-02-24T13:57:44.220Z,14.90
2019-02-24T14:00:21.040Z,14.80
2019-02-24T14:02:49.943Z,14.90
2019-02-24T14:05:18.843Z,14.90
2019-02-24T14:07:47.305Z,15.00
2019-02-24T14:10:15.897Z,15.00
2019-02-24T14:12:44.420Z,15.20
2019-02-24T14:15:14.409Z,15.30
2019-02-24T14:17:43.165Z,15.40
2019-02-24T14:20:13.060Z,15.20
2019-02-24T14:22:41.533Z,14.90
2019-02-24T14:25:11.433Z,14.80
2019-02-24T14:27:39.947Z,14.80
2019-02-24T14:30:16.151Z,14.80
2019-02-24T14:32:44.749Z,14.80
2019-02-24T14:35:16.098Z,14.80
2019-02-24T14:37:44.582Z,14.70
2019-02-24T14:40:13.424Z,14.70
2019-02-24T14:42:42.631Z,14.70
2019-02-24T14:45:24.939Z,14.40
2019-02-24T14:47:53.463Z,14.30
2019-02-24T14:50:21.941Z,14.40
2019-02-24T14:52:50.396Z,14.20
2019-02-24T14:55:18.834Z,14.10
2019-02-24T14:57:47.328Z,13.90
2019-02-24T15:00:18.228Z,13.80
2019-02-24T15:02:57.784Z,13.50
2019-02-24T15:05:26.497Z,13.50
2019-02-24T15:07:55.309Z,13.60
2019-02-24T15:10:24.822Z,13.80
2019-02-24T15:12:53.292Z,14.10
2019-02-24T15:15:32.506Z,14.00
2019-02-24T15:17:56.775Z,13.90
2019-02-24T15:20:25.418Z,13.90
2019-02-24T15:22:53.898Z,14.00
2019-02-24T15:25:29.706Z,13.80
2019-02-24T15:27:58.185Z,13.70
2019-02-24T15:30:39.102Z,13.60
2019-02-24T15:33:07.625Z,13.70
2019-02-24T15:35:36.097Z,13.80
2019-02-24T15:38:04.798Z,13.90
2019-02-24T15:40:33.259Z,13.80
2019-02-24T15:43:01.693Z,13.90
2019-02-24T15:45:30.467Z,13.70
2019-02-24T15:47:58.941Z,13.70
2019-02-24T15:50:27.394Z,13.70
2019-02-24T15:52:55.878Z,13.80
2019-02-24T15:55:24.501Z,13.90
2019-02-24T15:57:52.941Z,13.80
2019-02-24T16:00:22.741Z,13.80
2019-02-24T16:02:51.214Z,13.90
2019-02-24T16:05:19.661Z,13.70
2019-02-24T16:07:48.226Z,13.30
2019-02-24T16:10:22.043Z,13.00
2019-02-24T16:12:50.926Z,12.70
2019-02-24T16:15:25.241Z,12.70
2019-02-24T16:17:53.702Z,12.60
2019-02-24T16:20:36.468Z,12.60
2019-02-24T16:23:05.191Z,12.50
2019-02-24T16:28:09.683Z,12.60
2019-02-24T16:30:38.802Z,12.50
2019-02-24T16:33:10.544Z,12.40
2019-02-24T16:35:38.407Z,12.30
2019-02-24T16:38:07.392Z,12.20
2019-02-24T16:40:35.977Z,12.10
2019-02-24T16:43:04.521Z,11.90
2019-02-24T16:48:02.721Z,11.70
2019-02-24T16:50:31.190Z,11.60
2019-02-24T16:52:59.638Z,11.70
2019-02-24T16:56:04.157Z,11.70
2019-02-24T16:58:32.686Z,11.70
2019-02-24T17:01:02.158Z,11.60
2019-02-24T17:03:30.806Z,11.50
2019-02-24T17:06:01.396Z,11.40
2019-02-24T17:08:29.933Z,11.40
2019-02-24T17:11:07.086Z,11.30
2019-02-24T17:13:29.044Z,11.30
2019-02-24T17:15:57.634Z,11.20
2019-02-24T17:18:26.272Z,11.20
2019-02-24T17:20:54.808Z,11.10
2019-02-24T17:23:23.743Z,11.10
2019-02-24T17:25:53.040Z,11.00
2019-02-24T17:28:21.868Z,11.00
2019-02-24T17:30:50.451Z,11.00
2019-02-24T17:33:19.034Z,10.90
2019-02-24T17:35:47.812Z,10.80
2019-02-24T17:38:16.342Z,10.70
2019-02-24T17:40:44.836Z,10.80
2019-02-24T17:43:13.303Z,10.70
2019-02-24T17:45:41.760Z,10.70
2019-02-24T17:48:10.237Z,10.70
2019-02-24T17:50:38.698Z,10.70
2019-02-24T17:53:07.141Z,10.70
2019-02-24T17:55:35.623Z,10.60
2019-02-24T17:58:04.438Z,10.50
2019-02-24T18:00:43.419Z,10.50
2019-02-24T18:03:11.946Z,10.50
2019-02-24T18:05:40.425Z,10.70
2019-02-24T18:08:09.324Z,10.80
2019-02-24T18:10:37.820Z,10.80
2019-02-24T18:13:06.284Z,10.60
2019-02-24T18:15:34.736Z,10.60
2019-02-24T18:18:03.561Z,10.90
2019-02-24T18:20:32.032Z,11.10
2019-02-24T18:23:01.547Z,11.00
2019-02-24T18:25:30.349Z,10.90
2019-02-24T18:27:58.828Z,10.70
2019-02-24T18:30:31.087Z,10.50
2019-02-24T18:32:59.545Z,10.30
2019-02-24T18:35:28.383Z,10.20
2019-02-24T18:37:56.837Z,10.20
2019-02-24T18:40:25.416Z,10.20
2019-02-24T18:43:00.249Z,10.10
2019-02-24T18:45:24.742Z,10.00
2019-02-24T18:47:53.194Z,9.80
2019-02-24T18:50:21.663Z,9.70
2019-02-24T18:52:50.481Z,9.70
2019-02-24T18:55:18.934Z,9.80
2019-02-24T18:57:47.413Z,9.70
2019-02-24T19:00:20.163Z,9.70
2019-02-24T19:02:49.122Z,9.80
2019-02-24T19:05:17.817Z,10.10
2019-02-24T19:07:46.696Z,10.60
2019-02-24T19:10:17.193Z,11.10
2019-02-24T19:12:45.794Z,11.30
2019-02-24T19:15:16.503Z,11.30
2019-02-24T19:17:45.321Z,11.10
2019-02-24T19:20:16.336Z,10.80
2019-02-24T19:22:44.849Z,10.50
2019-02-24T19:25:14.102Z,10.30
2019-02-24T19:27:42.578Z,10.20
2019-02-24T19:30:19.204Z,10.10
2019-02-24T19:32:47.659Z,10.00
2019-02-24T19:35:17.041Z,9.90
2019-02-24T19:37:45.866Z,9.90
2019-02-24T19:40:23.473Z,9.70
2019-02-24T19:42:51.913Z,9.70
2019-02-24T19:45:22.770Z,9.60
2019-02-24T19:47:51.238Z,9.60
2019-02-24T19:50:19.760Z,9.50
2019-02-24T19:52:48.285Z,9.40
2019-02-24T19:55:17.544Z,9.20
2019-02-24T19:57:46.420Z,9.10
2019-02-24T20:00:20.078Z,8.90
2019-02-24T20:02:48.902Z,8.90
2019-02-24T20:05:17.527Z,9.00
2019-02-24T20:07:46.844Z,9.00
2019-02-24T20:10:18.671Z,9.10
2019-02-24T20:12:47.108Z,9.20
2019-02-24T20:15:16.288Z,9.30
2019-02-24T20:17:45.024Z,9.30
2019-02-24T20:20:17.761Z,9.30
2019-02-24T20:22:46.461Z,9.20
2019-02-24T20:25:19.932Z,9.10
2019-02-24T20:27:48.377Z,9.00
2019-02-24T20:30:30.736Z,9.00
2019-02-24T20:32:59.624Z,9.10
2019-02-24T20:35:28.128Z,9.00
2019-02-24T21:05:32.759Z,8.90
2019-02-24T21:08:01.287Z,8.90
2019-02-24T21:10:30.042Z,8.80
2019-02-24T21:12:58.859Z,8.80
2019-02-24T21:15:27.295Z,8.80
2019-02-24T21:17:55.829Z,8.70
2019-02-24T21:20:26.881Z,8.80
2019-02-24T21:22:55.440Z,8.80
2019-02-24T21:25:24.207Z,8.70
2019-02-24T21:27:52.739Z,8.80
2019-02-24T21:30:21.622Z,8.80
2019-02-24T21:32:50.472Z,8.70
2019-02-24T21:35:18.994Z,8.70
2019-02-24T21:37:47.441Z,8.60
2019-02-24T21:40:17.965Z,8.60
2019-02-24T21:42:46.591Z,8.60
2019-02-24T21:45:25.393Z,8.60
2019-02-24T21:47:53.843Z,8.50
2019-02-24T21:50:22.311Z,8.50
2019-02-24T21:52:50.848Z,8.50
2019-02-24T21:55:19.387Z,8.60
2019-02-24T21:57:47.913Z,8.60
2019-02-24T22:00:24.025Z,8.50
2019-02-24T22:02:52.664Z,8.50
2019-02-24T22:05:21.510Z,8.40
2019-02-24T22:07:49.960Z,8.40
2019-02-24T22:10:18.423Z,8.40
2019-02-24T22:12:46.859Z,8.30
2019-02-24T22:15:22.953Z,8.30
2019-02-24T22:17:51.401Z,8.30
2019-02-24T22:20:19.855Z,8.20
2019-02-24T22:22:48.389Z,8.30
2019-02-24T22:25:17.559Z,8.30
2019-02-24T22:27:46.024Z,8.30
2019-02-24T22:30:22.436Z,8.20
2019-02-24T22:32:50.963Z,8.30
2019-02-24T22:35:19.485Z,8.20
2019-02-24T22:37:48.090Z,8.10
2019-02-24T22:40:17.200Z,8.00
2019-02-24T22:42:46.380Z,7.90
2019-02-24T22:45:18.906Z,8.00
2019-02-24T22:47:47.431Z,7.90
2019-02-24T22:50:16.586Z,8.00
2019-02-24T22:52:46.397Z,8.10
2019-02-24T22:55:16.044Z,8.10
2019-02-24T22:57:44.669Z,8.00
2019-02-24T23:00:47.776Z,8.10
2019-02-24T23:03:16.218Z,8.00
2019-02-24T23:05:44.661Z,8.10
2019-02-24T23:08:13.182Z,8.00
2019-02-24T23:10:41.920Z,8.00
2019-02-24T23:13:10.450Z,8.00
2019-02-24T23:15:39.193Z,7.90
2019-02-24T23:18:07.667Z,7.90
2019-02-24T23:20:36.184Z,8.00
2019-02-24T23:23:04.789Z,8.00
2019-02-24T23:25:33.263Z,8.00
2019-02-24T23:28:02.012Z,8.00
2019-02-24T23:30:30.795Z,7.90
2019-02-24T23:32:59.709Z,7.90
2019-02-24T23:35:28.158Z,7.90
2019-02-24T23:37:56.980Z,7.90
2019-02-24T23:40:25.440Z,7.90
2019-02-24T23:42:54.227Z,7.90
2019-02-24T23:45:22.671Z,7.90
2019-02-24T23:47:51.095Z,7.90
2019-02-24T23:50:19.578Z,7.90
2019-02-24T23:52:48.361Z,7.80
2019-02-24T23:55:16.831Z,7.80
2019-02-24T23:57:45.283Z,7.70
